Shirak, Armenia

5:40 PM EET on February 27, 2015 (GMT +0200)
Gyumri Shirak Airport | Change Station
CLOSE
Current Station
Airport
Location: Gyumri Shirak Airport,
Elevation: 5000 ft
Nearby Weather Stations

Elev 5000 ft 40.75 °N, 43.86 °E | Updated 10 minutes ago

Clear
Clear
28 °F
Feels Like 23 °F
N
4
Wind Variable Wind from Variable

Today
High -- | Low -- °F
--% Chance of Precip.
Yesterday
High -- | Low -- °F
Precip. -- in
5:42 AM 4:52 PM
Waxing Gibbous, 69% visible
Pressure 30.24 in
Visibility 5.6 miles
Clouds
Windchill 23 °F
Dew Point 23 °F
Humidity 80%
Rainfall 0.00 in
Snow Depth Not available.
UV Not available.
Pollen Not available.
Air Quality Not available.
Flu Activity Not available.
METAR UDSG 271530Z VRB02MPS 9000 NSC M02/M05 Q1024 R02/CLRD70 NOSIG

More Conditions Fewer Conditions

Pressure 30.24 in
Visibility 5.6 miles
Clouds
Windchill 23 °F
Dew Point 23 °F
Humidity 80%
Rainfall 0.00 in
Snow Depth Not available.
UV Not available.
Pollen Not available.
Air Quality Not available.
Flu Activity Not available.
METAR UDSG 271530Z VRB02MPS 9000 NSC M02/M05 Q1024 R02/CLRD70 NOSIG

More Conditions Fewer Conditions

10-Day Weather Forecast

Almanac

Astronomy

Feb. 27, 2015 Rise Set
Actual Time
Civil Twilight
Nautical Twilight
Astronomical Twilight
Moon
Length of Visible Light
Length of Day
Tomorrow will be .
, % of the Moon is Illuminated

Today's Extremes

Country Highs Country Lows

Community

WunderPhotos

Upload Photos

1,800,704 photos uploaded!

WunderBlogs® & News

Nearby

Air Quality

  Air Quality AQ Index Pollutant
Not available.

Snow Depth

Station Depth Elevation

Earthquake Activity

City Distance Mag. Time & Date
Minimum magnitude displayed is 2.5.

Coastal Water Temperatures

Place Temperature

Nearby Weather Stations